createdAt,value
2018-04-06T00:02:02.491Z,91.66
2018-04-06T00:04:30.749Z,91.69
2018-04-06T00:06:59.788Z,91.51
2018-04-06T00:09:28.071Z,91.78
2018-04-06T00:11:57.093Z,92.18
2018-04-06T00:14:25.405Z,92.76
2018-04-06T00:16:54.421Z,92.79
2018-04-06T00:19:22.673Z,92.52
2018-04-06T00:21:50.962Z,92.20
2018-04-06T00:24:19.216Z,91.66
2018-04-06T00:26:48.238Z,91.08
2018-04-06T00:29:16.512Z,91.17
2018-04-06T00:31:44.773Z,91.76
2018-04-06T00:34:13.027Z,92.51
2018-04-06T00:36:41.301Z,92.55
2018-04-06T00:39:10.329Z,92.99
2018-04-06T00:41:38.610Z,94.14
2018-04-06T00:44:06.882Z,96.47
2018-04-06T00:46:35.143Z,99.31
2018-04-06T00:49:03.417Z,100.00
2018-04-06T00:51:32.469Z,100.00
2018-04-06T00:54:00.741Z,100.00
2018-04-06T00:56:29.003Z,99.82
2018-04-06T00:58:57.276Z,98.73
2018-04-06T01:01:25.597Z,98.00
2018-04-06T01:03:54.633Z,96.64
2018-04-06T01:06:22.888Z,95.41
2018-04-06T01:08:51.168Z,94.54
2018-04-06T01:11:19.437Z,93.96
2018-04-06T01:13:48.552Z,93.17
2018-04-06T01:16:16.828Z,92.90
2018-04-06T01:18:45.110Z,92.00
2018-04-06T01:21:13.355Z,91.84
2018-04-06T01:23:42.417Z,91.46
2018-04-06T01:26:10.681Z,91.38
2018-04-06T01:28:38.933Z,91.95
2018-04-06T01:31:07.408Z,92.35
2018-04-06T01:33:35.709Z,93.03
2018-04-06T01:36:04.012Z,93.60
2018-04-06T01:38:33.136Z,93.73
2018-04-06T01:41:01.500Z,95.08
2018-04-06T01:43:29.873Z,96.35
2018-04-06T01:45:58.968Z,96.17
2018-04-06T01:48:28.080Z,96.92
2018-04-06T01:50:57.195Z,97.75
2018-04-06T01:53:25.484Z,96.78
2018-04-06T01:55:53.754Z,96.16
2018-04-06T01:58:22.040Z,96.10
2018-04-06T02:00:50.312Z,98.08
2018-04-06T02:03:18.588Z,98.12
2018-04-06T02:05:46.888Z,97.54
2018-04-06T02:08:15.191Z,96.88
2018-04-06T02:10:43.465Z,95.78
2018-04-06T02:13:11.756Z,94.88
2018-04-06T02:15:40.779Z,96.47
2018-04-06T02:18:09.057Z,97.95
2018-04-06T02:20:37.338Z,99.12
2018-04-06T02:23:05.626Z,97.99
2018-04-06T02:25:34.025Z,97.52
2018-04-06T02:28:02.301Z,97.07
2018-04-06T02:30:30.568Z,96.29
2018-04-06T02:32:58.836Z,95.36
2018-04-06T02:35:27.122Z,94.53
2018-04-06T02:37:55.383Z,93.48
2018-04-06T02:40:23.641Z,92.86
2018-04-06T02:42:51.907Z,93.09
2018-04-06T02:45:20.168Z,92.70
2018-04-06T02:47:49.195Z,92.90
2018-04-06T02:50:17.472Z,92.39
2018-04-06T02:52:45.729Z,91.84
2018-04-06T02:55:13.989Z,92.02
2018-04-06T02:57:43.039Z,93.92
2018-04-06T03:00:11.305Z,95.71
2018-04-06T03:02:39.573Z,96.02
2018-04-06T03:05:07.875Z,95.25
2018-04-06T03:07:36.152Z,94.55
2018-04-06T03:10:04.425Z,94.30
2018-04-06T03:12:32.732Z,94.24
2018-04-06T03:15:01.776Z,93.94
2018-04-06T03:17:30.049Z,93.90
2018-04-06T03:19:58.335Z,93.77
2018-04-06T03:22:26.602Z,93.46
2018-04-06T03:24:54.905Z,93.46
2018-04-06T03:27:23.181Z,93.90
2018-04-06T03:29:51.461Z,93.20
2018-04-06T03:32:19.769Z,93.75
2018-04-06T03:34:48.813Z,93.89
2018-04-06T03:37:17.108Z,94.39
2018-04-06T03:39:45.377Z,94.99
2018-04-06T03:42:13.655Z,94.80
2018-04-06T03:44:41.936Z,94.16
2018-04-06T03:47:10.212Z,93.00
2018-04-06T03:49:38.480Z,92.74
2018-04-06T03:52:06.757Z,91.88
2018-04-06T03:54:35.037Z,91.38
2018-04-06T03:57:03.322Z,91.35
2018-04-06T03:59:31.598Z,91.31
2018-04-06T04:01:59.864Z,91.09
2018-04-06T04:04:29.158Z,90.89
2018-04-06T04:06:57.424Z,91.29
2018-04-06T04:09:25.698Z,91.93
2018-04-06T04:11:54.000Z,91.33
2018-04-06T04:14:22.261Z,90.85
2018-04-06T04:16:50.524Z,93.31
2018-04-06T04:19:18.811Z,92.94
2018-04-06T04:21:47.081Z,93.31
2018-04-06T04:24:15.346Z,93.17
2018-04-06T04:26:43.650Z,92.89
2018-04-06T04:29:11.930Z,92.93
2018-04-06T04:31:40.208Z,93.59
2018-04-06T04:34:08.498Z,93.88
2018-04-06T04:36:36.765Z,93.73
2018-04-06T04:39:05.941Z,93.29
2018-04-06T04:41:34.232Z,92.39
2018-04-06T04:44:02.498Z,91.36
2018-04-06T04:46:30.776Z,91.02
2018-04-06T04:48:59.061Z,91.82
2018-04-06T04:51:27.327Z,92.19
2018-04-06T04:53:55.608Z,92.28
2018-04-06T04:56:23.877Z,94.44
2018-04-06T04:58:52.160Z,94.10
2018-04-06T05:01:20.449Z,93.25
2018-04-06T05:03:48.792Z,93.74
2018-04-06T05:06:17.157Z,94.18
2018-04-06T05:08:45.506Z,93.49
2018-04-06T05:11:14.633Z,93.54
2018-04-06T05:13:42.927Z,92.87
2018-04-06T05:16:11.193Z,92.88
2018-04-06T05:18:39.456Z,93.49
2018-04-06T05:21:07.769Z,93.09
2018-04-06T05:23:36.040Z,93.58
2018-04-06T05:26:04.348Z,93.78
2018-04-06T05:28:32.624Z,93.99
2018-04-06T05:31:00.914Z,94.61
2018-04-06T05:33:29.965Z,95.53
2018-04-06T05:35:58.228Z,96.13
2018-04-06T05:38:26.505Z,96.13
2018-04-06T05:40:54.785Z,95.72
2018-04-06T05:43:23.041Z,94.49
2018-04-06T05:45:51.323Z,94.10
2018-04-06T05:48:19.580Z,93.31
2018-04-06T05:50:48.605Z,92.46
2018-04-06T05:53:16.880Z,91.42
2018-04-06T05:55:45.161Z,91.59
2018-04-06T05:58:13.432Z,92.26
2018-04-06T06:00:41.706Z,92.22
2018-04-06T06:03:09.957Z,91.36
2018-04-06T06:05:38.219Z,90.82
2018-04-06T06:08:07.249Z,90.82
2018-04-06T06:10:35.500Z,90.41
2018-04-06T06:13:03.779Z,90.87
2018-04-06T06:15:32.045Z,91.03
2018-04-06T06:18:01.076Z,90.77
2018-04-06T06:20:29.348Z,91.01
2018-04-06T06:22:57.637Z,90.80
2018-04-06T06:25:25.890Z,90.61
2018-04-06T06:27:54.176Z,89.94
2018-04-06T06:30:22.442Z,89.68
2018-04-06T06:32:50.744Z,89.40
2018-04-06T06:35:19.008Z,89.00
2018-04-06T06:37:47.278Z,88.41
2018-04-06T06:40:15.557Z,88.12
2018-04-06T06:42:43.810Z,87.84
2018-04-06T06:45:12.876Z,87.56
2018-04-06T06:47:41.148Z,87.10
2018-04-06T06:50:10.916Z,86.87
2018-04-06T06:52:39.187Z,86.33
2018-04-06T06:55:07.445Z,86.07
2018-04-06T06:57:36.517Z,85.84
2018-04-06T07:00:04.774Z,85.10
2018-04-06T07:02:33.024Z,85.41
2018-04-06T07:05:01.302Z,84.89
2018-04-06T07:07:29.572Z,84.29
2018-04-06T07:09:57.833Z,84.79
2018-04-06T07:12:26.333Z,85.04
2018-04-06T07:14:54.661Z,86.30
2018-04-06T07:17:23.680Z,86.71
2018-04-06T07:19:51.948Z,86.51
2018-04-06T07:22:20.202Z,87.05
2018-04-06T07:24:49.293Z,86.68
2018-04-06T07:27:18.319Z,86.20
2018-04-06T07:29:46.605Z,85.85
2018-04-06T07:32:14.881Z,85.37
2018-04-06T07:34:43.145Z,86.21
2018-04-06T07:37:11.412Z,86.21
2018-04-06T07:39:41.688Z,86.18
2018-04-06T07:42:09.950Z,85.27
2018-04-06T07:44:38.239Z,87.69
2018-04-06T07:47:06.516Z,87.18
2018-04-06T07:49:34.771Z,87.67
2018-04-06T07:52:03.033Z,86.35
2018-04-06T07:54:31.320Z,86.50
2018-04-06T07:56:59.628Z,85.39
2018-04-06T07:59:27.846Z,85.05
2018-04-06T08:01:56.885Z,84.71
2018-04-06T08:04:25.140Z,83.90
2018-04-06T08:06:53.405Z,83.57
2018-04-06T08:09:21.687Z,82.58
2018-04-06T08:11:49.956Z,82.09
2018-04-06T08:14:18.212Z,83.17
2018-04-06T08:16:47.336Z,80.54
2018-04-06T08:19:15.580Z,80.17
2018-04-06T08:21:44.612Z,79.55
2018-04-06T08:24:12.948Z,79.32
2018-04-06T08:26:41.976Z,77.63
2018-04-06T08:29:10.226Z,78.28
2018-04-06T08:31:39.350Z,77.42
2018-04-06T08:34:07.596Z,76.48
2018-04-06T08:36:36.623Z,72.26
2018-04-06T08:39:04.894Z,72.00
2018-04-06T08:41:33.153Z,70.67
2018-04-06T08:44:01.459Z,69.39
2018-04-06T08:46:29.717Z,65.45
2018-04-06T08:48:57.979Z,65.39
2018-04-06T08:51:26.256Z,65.10
2018-04-06T08:53:54.508Z,65.71
2018-04-06T08:56:22.782Z,63.86
2018-04-06T08:58:51.026Z,61.40
2018-04-06T09:01:19.285Z,62.07
2018-04-06T09:03:47.552Z,61.15
2018-04-06T09:06:15.826Z,61.65
2018-04-06T09:08:44.080Z,61.46
2018-04-06T09:11:13.126Z,59.79
2018-04-06T09:13:41.377Z,57.97
2018-04-06T09:16:09.640Z,57.18
2018-04-06T09:18:37.904Z,60.77
2018-04-06T09:21:06.936Z,56.63
2018-04-06T09:23:35.184Z,58.28
2018-04-06T09:26:03.465Z,55.81
2018-04-06T09:28:31.717Z,55.93
2018-04-06T09:31:00.738Z,54.32
2018-04-06T09:33:29.047Z,54.69
2018-04-06T09:35:57.309Z,57.25
2018-04-06T09:38:25.570Z,55.37
2018-04-06T09:40:53.844Z,55.32
2018-04-06T09:43:22.089Z,56.03
2018-04-06T09:45:51.156Z,49.37
2018-04-06T09:48:19.433Z,49.48
2018-04-06T09:50:47.701Z,48.96
2018-04-06T09:53:15.973Z,45.84
2018-04-06T09:55:44.257Z,47.63
2018-04-06T09:58:12.548Z,47.09
2018-04-06T10:00:40.813Z,47.26
2018-04-06T10:03:09.103Z,45.08
2018-04-06T10:05:38.893Z,50.99
2018-04-06T10:08:07.184Z,48.73
2018-04-06T10:10:35.465Z,48.08
2018-04-06T10:13:03.726Z,46.58
2018-04-06T10:15:32.001Z,48.53
2018-04-06T10:18:00.315Z,45.19
2018-04-06T10:20:29.345Z,44.25
2018-04-06T10:22:57.617Z,44.62
2018-04-06T10:25:25.901Z,43.96
2018-04-06T10:27:54.160Z,45.15
2018-04-06T10:30:22.424Z,44.53
2018-04-06T10:32:50.700Z,44.13
2018-04-06T10:35:18.971Z,43.11
2018-04-06T10:37:48.040Z,43.49
2018-04-06T10:40:17.828Z,46.11
2018-04-06T10:42:46.092Z,44.89
2018-04-06T10:45:14.379Z,44.28
2018-04-06T10:47:42.640Z,41.54
2018-04-06T10:50:10.902Z,40.34
2018-04-06T10:52:39.177Z,43.29
2018-04-06T10:55:07.445Z,41.79
2018-04-06T10:57:35.779Z,44.37
2018-04-06T11:00:04.041Z,43.69
2018-04-06T11:02:32.300Z,41.05
2018-04-06T11:05:00.584Z,39.56
2018-04-06T11:07:28.852Z,40.58
2018-04-06T11:09:57.131Z,40.34
2018-04-06T11:12:25.392Z,41.28
2018-04-06T11:14:53.676Z,41.00
2018-04-06T11:17:21.963Z,39.61
2018-04-06T11:19:50.232Z,39.87
2018-04-06T11:22:18.509Z,40.48
2018-04-06T11:24:46.780Z,40.78
2018-04-06T11:27:15.088Z,38.25
2018-04-06T11:29:43.342Z,40.31
2018-04-06T11:32:11.620Z,39.92
2018-04-06T11:34:39.914Z,39.99
2018-04-06T11:37:08.196Z,39.98
2018-04-06T11:39:36.456Z,38.16
2018-04-06T11:42:04.733Z,37.61
2018-04-06T11:44:33.014Z,38.41
2018-04-06T11:47:01.273Z,38.71
2018-04-06T11:49:29.556Z,37.94
2018-04-06T11:51:57.836Z,37.61
2018-04-06T11:54:26.113Z,38.78
2018-04-06T11:56:54.397Z,37.46
2018-04-06T11:59:22.665Z,37.39
2018-04-06T12:01:50.944Z,37.24
2018-04-06T12:04:19.216Z,37.54
2018-04-06T12:06:47.528Z,38.10
2018-04-06T12:09:16.557Z,40.07
2018-04-06T12:11:44.820Z,37.51
2018-04-06T12:14:13.096Z,37.18
2018-04-06T12:16:41.372Z,39.88
2018-04-06T12:19:09.660Z,37.87
2018-04-06T12:21:37.920Z,37.75
2018-04-06T12:24:06.188Z,37.62
2018-04-06T12:26:35.237Z,37.30
2018-04-06T12:29:03.503Z,38.22
2018-04-06T12:31:31.792Z,36.56
2018-04-06T12:34:00.059Z,37.58
2018-04-06T12:36:28.416Z,36.63
2018-04-06T12:38:56.694Z,36.99
2018-04-06T12:41:24.980Z,38.31
2018-04-06T12:43:53.257Z,36.53
2018-04-06T12:46:21.532Z,36.21
2018-04-06T12:48:49.864Z,37.88
2018-04-06T12:51:18.088Z,36.79
2018-04-06T12:53:46.361Z,34.72
2018-04-06T12:56:14.679Z,35.37
2018-04-06T12:58:42.944Z,35.49
2018-04-06T13:01:11.237Z,34.67
2018-04-06T13:03:39.492Z,34.21
2018-04-06T13:06:07.816Z,33.35
2018-04-06T13:08:36.089Z,33.29
2018-04-06T13:11:05.142Z,32.43
2018-04-06T13:13:33.396Z,33.46
2018-04-06T13:16:01.766Z,33.79
2018-04-06T13:18:30.065Z,30.20
2018-04-06T13:20:58.353Z,30.43
2018-04-06T13:23:26.636Z,29.20
2018-04-06T13:25:54.974Z,28.88
2018-04-06T13:28:23.257Z,31.37
2018-04-06T13:30:51.536Z,29.70
2018-04-06T13:33:19.813Z,29.67
2018-04-06T13:35:48.096Z,27.63
2018-04-06T13:38:16.354Z,29.55
2018-04-06T13:40:44.725Z,30.33
2018-04-06T13:43:12.983Z,29.95
2018-04-06T13:45:41.286Z,29.25
2018-04-06T13:48:09.548Z,29.74
2018-04-06T13:50:37.822Z,27.70
2018-04-06T13:53:06.096Z,29.61
2018-04-06T13:55:34.356Z,28.62
2018-04-06T13:58:03.409Z,27.03
2018-04-06T14:00:31.673Z,27.12
2018-04-06T14:02:59.948Z,25.42
2018-04-06T14:05:28.235Z,25.58
2018-04-06T14:07:56.529Z,25.54
2018-04-06T14:10:24.808Z,24.59
2018-04-06T14:12:54.568Z,24.61
2018-04-06T14:15:22.828Z,24.78
2018-04-06T14:17:51.108Z,23.53
2018-04-06T14:20:19.373Z,23.73
2018-04-06T14:22:48.422Z,24.30
2018-04-06T14:25:16.709Z,24.19
2018-04-06T14:27:44.969Z,22.60
2018-04-06T14:30:13.249Z,23.57
2018-04-06T14:32:41.514Z,22.43
2018-04-06T14:35:09.802Z,22.81
2018-04-06T14:37:38.146Z,24.36
2018-04-06T14:40:06.368Z,23.13
2018-04-06T14:42:34.628Z,22.69
2018-04-06T14:45:02.893Z,24.10
2018-04-06T14:47:31.195Z,22.90
2018-04-06T14:49:59.533Z,22.00
2018-04-06T14:52:27.804Z,23.68
2018-04-06T14:54:56.078Z,23.43
2018-04-06T14:57:24.359Z,23.08
2018-04-06T14:59:52.705Z,21.92
2018-04-06T15:02:21.733Z,21.91
2018-04-06T15:04:50.016Z,23.85
2018-04-06T15:07:18.307Z,22.56
2018-04-06T15:09:46.576Z,23.66
2018-04-06T15:12:14.837Z,24.34
2018-04-06T15:14:43.113Z,23.51
2018-04-06T15:17:11.405Z,23.48
2018-04-06T15:19:39.677Z,22.38
2018-04-06T15:22:07.960Z,22.82
2018-04-06T15:24:36.295Z,23.58
2018-04-06T15:27:04.512Z,24.24
2018-04-06T15:29:32.792Z,23.07
2018-04-06T15:32:01.069Z,22.62
2018-04-06T15:34:29.345Z,23.59
2018-04-06T15:36:57.631Z,23.13
2018-04-06T15:39:25.908Z,23.83
2018-04-06T15:41:54.194Z,24.21
2018-04-06T15:44:22.474Z,23.75
2018-04-06T15:46:50.769Z,23.20
2018-04-06T15:49:19.796Z,22.75
2018-04-06T15:51:48.074Z,22.68
2018-04-06T15:54:16.364Z,23.15
2018-04-06T15:56:45.487Z,22.69
2018-04-06T15:59:13.773Z,23.46
2018-04-06T16:01:42.042Z,24.13
2018-04-06T16:04:10.300Z,22.84
2018-04-06T16:06:38.576Z,23.44
2018-04-06T16:09:06.850Z,23.65
2018-04-06T16:11:35.143Z,23.79
2018-04-06T16:14:03.405Z,24.10
2018-04-06T16:16:31.681Z,23.93
2018-04-06T16:18:59.962Z,23.88
2018-04-06T16:21:28.228Z,24.94
2018-04-06T16:23:56.500Z,24.48
2018-04-06T16:26:24.793Z,25.07
2018-04-06T16:28:53.062Z,24.95
2018-04-06T16:31:21.353Z,25.92
2018-04-06T16:33:49.618Z,25.42
2018-04-06T16:36:17.882Z,25.41
2018-04-06T16:38:46.152Z,25.65
2018-04-06T16:41:14.450Z,25.37
2018-04-06T16:43:42.799Z,25.41
2018-04-06T16:46:11.065Z,24.63
2018-04-06T16:48:39.354Z,24.37
2018-04-06T16:51:07.649Z,24.47
2018-04-06T16:53:35.930Z,25.55
2018-04-06T16:56:04.220Z,26.05
2018-04-06T16:58:33.244Z,26.66
2018-04-06T17:01:02.305Z,26.53
2018-04-06T17:03:30.562Z,27.08
2018-04-06T17:05:58.825Z,27.94
2018-04-06T17:08:27.101Z,26.62
2018-04-06T17:10:55.372Z,26.19
2018-04-06T17:13:23.660Z,26.43
2018-04-06T17:15:51.930Z,26.87
2018-04-06T17:18:20.193Z,28.78
2018-04-06T17:20:48.477Z,29.69
2018-04-06T17:23:16.741Z,29.77
2018-04-06T17:25:45.132Z,31.71
2018-04-06T17:28:13.395Z,31.29
2018-04-06T17:30:41.665Z,31.99
2018-04-06T17:33:09.940Z,32.67
2018-04-06T17:35:38.218Z,33.44
2018-04-06T17:38:06.508Z,34.39
2018-04-06T17:40:34.770Z,34.97
2018-04-06T17:43:03.057Z,35.73
2018-04-06T17:45:31.374Z,35.88
2018-04-06T17:47:59.636Z,36.29
2018-04-06T17:50:27.925Z,36.55
2018-04-06T17:52:56.185Z,36.58
2018-04-06T17:55:24.465Z,37.14
2018-04-06T17:57:52.768Z,37.34
2018-04-06T18:00:21.022Z,36.99
2018-04-06T18:02:49.319Z,38.19
2018-04-06T18:05:17.608Z,37.45
2018-04-06T18:07:46.648Z,37.62
2018-04-06T18:10:14.928Z,38.20
2018-04-06T18:12:43.196Z,38.47
2018-04-06T18:15:11.477Z,38.93
2018-04-06T18:17:39.769Z,39.02
2018-04-06T18:20:08.050Z,39.63
2018-04-06T18:22:36.320Z,39.70
2018-04-06T18:25:04.592Z,39.67
2018-04-06T18:27:32.880Z,40.52
2018-04-06T18:30:01.210Z,40.18
2018-04-06T18:32:29.773Z,40.63
2018-04-06T18:34:58.398Z,41.13
2018-04-06T18:37:27.185Z,41.80
2018-04-06T18:39:57.003Z,42.80
2018-04-06T18:42:26.608Z,43.71
2018-04-06T18:44:57.477Z,45.15
2018-04-06T18:47:27.518Z,48.89
2018-04-06T18:49:57.528Z,47.15
2018-04-06T18:52:27.522Z,48.42
2018-04-06T18:54:57.332Z,50.07
2018-04-06T18:57:27.313Z,50.18
2018-04-06T18:59:57.896Z,48.87
2018-04-06T19:02:27.816Z,50.71
2018-04-06T19:04:57.887Z,50.96
2018-04-06T19:07:27.917Z,50.38
2018-04-06T19:09:57.879Z,51.03
2018-04-06T19:12:27.623Z,50.94
2018-04-06T19:14:58.668Z,51.28
2018-04-06T19:17:28.515Z,50.52
2018-04-06T19:19:58.425Z,49.94
2018-04-06T19:22:28.403Z,51.64
2018-04-06T19:24:58.561Z,49.70
2018-04-06T19:27:28.684Z,50.28
2018-04-06T19:29:58.796Z,49.56
2018-04-06T19:32:28.740Z,49.48
2018-04-06T19:34:58.812Z,50.50
2018-04-06T19:37:28.798Z,50.14
2018-04-06T19:40:00.363Z,51.08
2018-04-06T19:42:31.084Z,52.39
2018-04-06T19:45:01.935Z,50.89
2018-04-06T19:47:31.833Z,50.25
2018-04-06T19:50:02.770Z,51.29
2018-04-06T19:52:32.919Z,51.79
2018-04-06T19:55:03.061Z,52.93
2018-04-06T19:57:33.036Z,52.27
2018-04-06T20:00:04.180Z,53.49
2018-04-06T20:02:35.353Z,54.64
2018-04-06T20:05:05.314Z,55.05
2018-04-06T20:07:35.150Z,56.65
2018-04-06T20:10:05.960Z,56.90
2018-04-06T20:12:36.025Z,56.78
2018-04-06T20:15:06.844Z,55.97
2018-04-06T20:17:37.603Z,59.37
2018-04-06T20:20:08.589Z,58.89
2018-04-06T20:22:38.630Z,59.08
2018-04-06T20:25:09.110Z,59.80
2018-04-06T20:27:39.443Z,60.57
2018-04-06T20:30:09.317Z,59.26
2018-04-06T20:32:39.306Z,59.89
2018-04-06T20:35:10.693Z,60.56
2018-04-06T20:37:40.909Z,58.28
2018-04-06T20:40:11.572Z,60.03
2018-04-06T20:42:41.666Z,59.91
2018-04-06T20:45:11.294Z,59.82
2018-04-06T20:47:41.563Z,59.25
2018-04-06T20:50:11.078Z,57.45
2018-04-06T20:52:40.507Z,57.98
2018-04-06T20:55:09.954Z,58.19
2018-04-06T20:57:40.139Z,60.56
2018-04-06T21:00:10.227Z,59.25
2018-04-06T21:02:41.190Z,60.00
2018-04-06T21:05:10.999Z,61.89
2018-04-06T21:07:41.075Z,61.10
2018-04-06T21:10:11.821Z,60.23
2018-04-06T21:12:42.660Z,59.09
2018-04-06T21:15:13.889Z,59.61
2018-04-06T21:17:43.968Z,61.57
2018-04-06T21:20:13.605Z,61.15
2018-04-06T21:22:43.731Z,60.63
2018-04-06T21:25:13.744Z,61.20
2018-04-06T21:27:43.883Z,61.32
2018-04-06T21:30:13.472Z,62.39
2018-04-06T21:32:43.380Z,63.22
2018-04-06T21:35:12.977Z,62.73
2018-04-06T21:37:41.388Z,64.05
2018-04-06T21:40:10.007Z,63.74
2018-04-06T21:42:38.463Z,64.76
2018-04-06T21:45:06.940Z,65.83
2018-04-06T21:47:35.292Z,65.66
2018-04-06T21:50:04.581Z,65.12
2018-04-06T21:52:33.722Z,64.83
2018-04-06T21:55:02.038Z,64.04
2018-04-06T21:57:30.336Z,63.77
2018-04-06T21:59:58.591Z,62.75
2018-04-06T22:02:26.884Z,62.78
2018-04-06T22:04:55.891Z,63.44
2018-04-06T22:07:24.177Z,63.98
2018-04-06T22:09:53.200Z,65.02
2018-04-06T22:12:21.480Z,65.25
2018-04-06T22:14:49.755Z,67.18
2018-04-06T22:17:18.016Z,66.50
2018-04-06T22:19:46.295Z,66.81
2018-04-06T22:22:14.561Z,66.06
2018-04-06T22:24:43.614Z,66.09
2018-04-06T22:27:11.875Z,67.63
2018-04-06T22:29:40.148Z,68.78
2018-04-06T22:32:08.408Z,68.50
2018-04-06T22:34:36.679Z,69.88
2018-04-06T22:37:04.957Z,69.90
2018-04-06T22:39:33.229Z,71.24
2018-04-06T22:42:01.504Z,69.87
2018-04-06T22:44:29.748Z,69.57
2018-04-06T22:46:58.787Z,69.50
2018-04-06T22:49:27.064Z,69.60
2018-04-06T22:51:55.322Z,69.63
2018-04-06T22:54:23.612Z,69.01
2018-04-06T22:56:51.868Z,66.98
2018-04-06T22:59:20.140Z,67.89
2018-04-06T23:01:48.423Z,69.03
2018-04-06T23:04:16.703Z,69.12
2018-04-06T23:06:44.975Z,68.93
2018-04-06T23:09:13.249Z,69.48
2018-04-06T23:11:41.643Z,69.90
2018-04-06T23:14:09.888Z,70.82
2018-04-06T23:16:38.925Z,71.27
2018-04-06T23:19:07.177Z,72.61
2018-04-06T23:21:35.469Z,72.46
2018-04-06T23:24:03.720Z,73.33
2018-04-06T23:26:32.748Z,74.25
2018-04-06T23:29:01.010Z,74.69
2018-04-06T23:31:29.283Z,75.58
2018-04-06T23:33:57.533Z,75.15
2018-04-06T23:36:26.574Z,75.55
2018-04-06T23:38:54.826Z,76.21
2018-04-06T23:41:23.109Z,76.08
2018-04-06T23:43:51.381Z,76.92
2018-04-06T23:46:19.639Z,77.75
2018-04-06T23:48:48.655Z,77.79
2018-04-06T23:51:16.928Z,77.50
2018-04-06T23:53:45.205Z,77.52
2018-04-06T23:56:13.457Z,77.17
2018-04-06T23:58:42.473Z,77.08
